sensor_id;sensor_type;location;lat;lon;timestamp;P1;durP1;ratioP1;P2;durP2;ratioP2
5157;SDS011;2598;52.364;9.772;2022-12-18T00:02:19;27.38;;;9.27;;
5157;SDS011;2598;52.364;9.772;2022-12-18T00:04:46;24.48;;;9.50;;
5157;SDS011;2598;52.364;9.772;2022-12-18T00:07:12;22.37;;;10.50;;
5157;SDS011;2598;52.364;9.772;2022-12-18T00:09:38;22.53;;;10.00;;
5157;SDS011;2598;52.364;9.772;2022-12-18T00:12:04;20.53;;;9.40;;
5157;SDS011;2598;52.364;9.772;2022-12-18T00:14:30;17.63;;;9.50;;
5157;SDS011;2598;52.364;9.772;2022-12-18T00:16:56;21.47;;;10.43;;
5157;SDS011;2598;52.364;9.772;2022-12-18T00:19:25;20.25;;;9.00;;
5157;SDS011;2598;52.364;9.772;2022-12-18T00:21:51;20.23;;;10.23;;
5157;SDS011;2598;52.364;9.772;2022-12-18T00:24:17;22.80;;;11.05;;
5157;SDS011;2598;52.364;9.772;2022-12-18T00:26:43;21.40;;;10.25;;
5157;SDS011;2598;52.364;9.772;2022-12-18T00:29:10;26.60;;;10.07;;
5157;SDS011;2598;52.364;9.772;2022-12-18T00:31:38;21.92;;;10.13;;
5157;SDS011;2598;52.364;9.772;2022-12-18T00:34:04;19.40;;;9.07;;
5157;SDS011;2598;52.364;9.772;2022-12-18T00:36:31;24.38;;;9.50;;
5157;SDS011;2598;52.364;9.772;2022-12-18T00:38:58;22.23;;;9.55;;
5157;SDS011;2598;52.364;9.772;2022-12-18T00:41:25;26.20;;;9.10;;
5157;SDS011;2598;52.364;9.772;2022-12-18T00:44:11;28.60;;;9.90;;
5157;SDS011;2598;52.364;9.772;2022-12-18T00:46:38;20.55;;;9.45;;
5157;SDS011;2598;52.364;9.772;2022-12-18T00:49:04;19.38;;;9.27;;
5157;SDS011;2598;52.364;9.772;2022-12-18T00:51:30;22.70;;;11.07;;
5157;SDS011;2598;52.364;9.772;2022-12-18T00:53:56;24.00;;;10.57;;
5157;SDS011;2598;52.364;9.772;2022-12-18T00:56:22;20.77;;;9.30;;
5157;SDS011;2598;52.364;9.772;2022-12-18T00:58:48;22.48;;;10.30;;
5157;SDS011;2598;52.364;9.772;2022-12-18T01:01:15;19.38;;;9.98;;
5157;SDS011;2598;52.364;9.772;2022-12-18T01:03:41;23.85;;;10.35;;
5157;SDS011;2598;52.364;9.772;2022-12-18T01:06:07;19.55;;;8.55;;
5157;SDS011;2598;52.364;9.772;2022-12-18T01:08:34;19.40;;;9.68;;
5157;SDS011;2598;52.364;9.772;2022-12-18T01:11:01;17.17;;;8.15;;
5157;SDS011;2598;52.364;9.772;2022-12-18T01:13:27;23.40;;;9.43;;
5157;SDS011;2598;52.364;9.772;2022-12-18T01:15:53;19.42;;;8.45;;
5157;SDS011;2598;52.364;9.772;2022-12-18T01:18:19;18.40;;;8.43;;
5157;SDS011;2598;52.364;9.772;2022-12-18T01:20:45;18.05;;;8.73;;
5157;SDS011;2598;52.364;9.772;2022-12-18T01:23:11;17.60;;;8.60;;
5157;SDS011;2598;52.364;9.772;2022-12-18T01:25:37;20.67;;;9.60;;
5157;SDS011;2598;52.364;9.772;2022-12-18T01:28:03;22.63;;;9.17;;
5157;SDS011;2598;52.364;9.772;2022-12-18T01:30:29;19.45;;;8.10;;
5157;SDS011;2598;52.364;9.772;2022-12-18T01:32:55;24.37;;;10.00;;
5157;SDS011;2598;52.364;9.772;2022-12-18T01:35:21;21.90;;;8.73;;
5157;SDS011;2598;52.364;9.772;2022-12-18T01:37:47;18.85;;;8.40;;
5157;SDS011;2598;52.364;9.772;2022-12-18T01:40:13;23.20;;;8.80;;
5157;SDS011;2598;52.364;9.772;2022-12-18T01:42:39;17.40;;;7.57;;
5157;SDS011;2598;52.364;9.772;2022-12-18T01:47:41;17.08;;;7.95;;
5157;SDS011;2598;52.364;9.772;2022-12-18T01:52:46;20.63;;;8.18;;
5157;SDS011;2598;52.364;9.772;2022-12-18T01:55:12;18.27;;;8.07;;
5157;SDS011;2598;52.364;9.772;2022-12-18T01:57:40;15.80;;;8.25;;
5157;SDS011;2598;52.364;9.772;2022-12-18T02:00:09;20.27;;;8.13;;
5157;SDS011;2598;52.364;9.772;2022-12-18T02:02:35;22.48;;;8.93;;
5157;SDS011;2598;52.364;9.772;2022-12-18T02:05:02;16.70;;;7.55;;
5157;SDS011;2598;52.364;9.772;2022-12-18T02:07:32;24.13;;;8.52;;
5157;SDS011;2598;52.364;9.772;2022-12-18T02:10:02;16.35;;;8.18;;
5157;SDS011;2598;52.364;9.772;2022-12-18T02:12:48;18.33;;;8.18;;
5157;SDS011;2598;52.364;9.772;2022-12-18T02:15:36;17.30;;;8.85;;
5157;SDS011;2598;52.364;9.772;2022-12-18T02:18:08;16.02;;;7.68;;
5157;SDS011;2598;52.364;9.772;2022-12-18T02:20:36;16.73;;;7.18;;
5157;SDS011;2598;52.364;9.772;2022-12-18T02:28:34;16.65;;;8.13;;
5157;SDS011;2598;52.364;9.772;2022-12-18T02:31:01;18.17;;;7.63;;
5157;SDS011;2598;52.364;9.772;2022-12-18T02:33:28;18.90;;;7.50;;
5157;SDS011;2598;52.364;9.772;2022-12-18T02:35:55;16.95;;;7.97;;
5157;SDS011;2598;52.364;9.772;2022-12-18T02:38:22;14.35;;;7.40;;
5157;SDS011;2598;52.364;9.772;2022-12-18T02:40:48;16.70;;;7.80;;
5157;SDS011;2598;52.364;9.772;2022-12-18T02:43:15;17.83;;;8.00;;
5157;SDS011;2598;52.364;9.772;2022-12-18T02:45:48;16.27;;;6.53;;
5157;SDS011;2598;52.364;9.772;2022-12-18T02:48:16;17.50;;;7.40;;
5157;SDS011;2598;52.364;9.772;2022-12-18T02:50:48;16.52;;;7.82;;
5157;SDS011;2598;52.364;9.772;2022-12-18T02:53:24;16.52;;;6.95;;
5157;SDS011;2598;52.364;9.772;2022-12-18T02:56:04;18.67;;;7.38;;
5157;SDS011;2598;52.364;9.772;2022-12-18T03:01:21;14.05;;;6.18;;
5157;SDS011;2598;52.364;9.772;2022-12-18T03:04:04;13.05;;;6.45;;
5157;SDS011;2598;52.364;9.772;2022-12-18T03:06:32;17.42;;;7.53;;
5157;SDS011;2598;52.364;9.772;2022-12-18T03:09:00;13.80;;;7.05;;
5157;SDS011;2598;52.364;9.772;2022-12-18T03:11:27;16.10;;;6.82;;
5157;SDS011;2598;52.364;9.772;2022-12-18T03:14:12;14.70;;;6.82;;
5157;SDS011;2598;52.364;9.772;2022-12-18T03:16:41;14.85;;;6.78;;
5157;SDS011;2598;52.364;9.772;2022-12-18T03:19:08;18.17;;;7.40;;
5157;SDS011;2598;52.364;9.772;2022-12-18T03:21:41;16.20;;;7.05;;
5157;SDS011;2598;52.364;9.772;2022-12-18T03:24:08;17.00;;;6.63;;
5157;SDS011;2598;52.364;9.772;2022-12-18T03:26:35;19.33;;;7.13;;
5157;SDS011;2598;52.364;9.772;2022-12-18T03:29:06;13.52;;;6.78;;
5157;SDS011;2598;52.364;9.772;2022-12-18T03:31:33;16.17;;;7.10;;
5157;SDS011;2598;52.364;9.772;2022-12-18T03:34:01;17.97;;;7.57;;
5157;SDS011;2598;52.364;9.772;2022-12-18T03:36:28;14.70;;;7.15;;
5157;SDS011;2598;52.364;9.772;2022-12-18T03:38:54;18.20;;;6.70;;
5157;SDS011;2598;52.364;9.772;2022-12-18T03:41:33;15.18;;;7.00;;
5157;SDS011;2598;52.364;9.772;2022-12-18T03:44:09;12.20;;;6.38;;
5157;SDS011;2598;52.364;9.772;2022-12-18T03:46:58;14.90;;;6.47;;
5157;SDS011;2598;52.364;9.772;2022-12-18T03:52:13;15.68;;;6.65;;
5157;SDS011;2598;52.364;9.772;2022-12-18T03:54:42;18.88;;;7.03;;
5157;SDS011;2598;52.364;9.772;2022-12-18T03:57:10;17.17;;;6.80;;
5157;SDS011;2598;52.364;9.772;2022-12-18T03:59:37;17.42;;;7.03;;
5157;SDS011;2598;52.364;9.772;2022-12-18T04:02:04;12.98;;;6.25;;
5157;SDS011;2598;52.364;9.772;2022-12-18T04:04:32;13.85;;;6.93;;
5157;SDS011;2598;52.364;9.772;2022-12-18T04:06:59;15.60;;;6.13;;
5157;SDS011;2598;52.364;9.772;2022-12-18T04:09:25;14.93;;;6.38;;
5157;SDS011;2598;52.364;9.772;2022-12-18T04:11:51;15.35;;;6.30;;
5157;SDS011;2598;52.364;9.772;2022-12-18T04:14:17;15.45;;;6.70;;
5157;SDS011;2598;52.364;9.772;2022-12-18T04:16:43;16.40;;;7.25;;
5157;SDS011;2598;52.364;9.772;2022-12-18T04:19:10;14.40;;;7.20;;
5157;SDS011;2598;52.364;9.772;2022-12-18T04:21:35;16.33;;;6.80;;
5157;SDS011;2598;52.364;9.772;2022-12-18T04:24:01;15.20;;;6.23;;
5157;SDS011;2598;52.364;9.772;2022-12-18T04:26:27;14.98;;;6.53;;
5157;SDS011;2598;52.364;9.772;2022-12-18T04:28:54;14.25;;;6.07;;
5157;SDS011;2598;52.364;9.772;2022-12-18T04:31:20;13.97;;;5.57;;
5157;SDS011;2598;52.364;9.772;2022-12-18T04:33:46;13.73;;;6.10;;
5157;SDS011;2598;52.364;9.772;2022-12-18T04:36:12;14.10;;;7.57;;
5157;SDS011;2598;52.364;9.772;2022-12-18T04:38:38;16.27;;;7.30;;
5157;SDS011;2598;52.364;9.772;2022-12-18T04:41:04;15.80;;;6.75;;
5157;SDS011;2598;52.364;9.772;2022-12-18T04:43:30;14.07;;;6.65;;
5157;SDS011;2598;52.364;9.772;2022-12-18T04:46:01;14.80;;;7.03;;
5157;SDS011;2598;52.364;9.772;2022-12-18T04:48:27;16.10;;;6.78;;
5157;SDS011;2598;52.364;9.772;2022-12-18T04:50:53;14.47;;;5.47;;
5157;SDS011;2598;52.364;9.772;2022-12-18T04:53:19;12.73;;;5.70;;
5157;SDS011;2598;52.364;9.772;2022-12-18T04:55:45;15.87;;;6.70;;
5157;SDS011;2598;52.364;9.772;2022-12-18T04:58:11;17.17;;;6.77;;
5157;SDS011;2598;52.364;9.772;2022-12-18T05:00:37;15.63;;;6.60;;
5157;SDS011;2598;52.364;9.772;2022-12-18T05:03:03;16.70;;;6.80;;
5157;SDS011;2598;52.364;9.772;2022-12-18T05:05:29;11.20;;;5.45;;
5157;SDS011;2598;52.364;9.772;2022-12-18T05:07:55;14.73;;;6.25;;
5157;SDS011;2598;52.364;9.772;2022-12-18T05:10:21;15.47;;;6.93;;
5157;SDS011;2598;52.364;9.772;2022-12-18T05:12:47;13.27;;;5.60;;
5157;SDS011;2598;52.364;9.772;2022-12-18T05:15:26;16.90;;;6.13;;
5157;SDS011;2598;52.364;9.772;2022-12-18T05:17:52;13.23;;;5.88;;
5157;SDS011;2598;52.364;9.772;2022-12-18T05:20:18;13.60;;;6.20;;
5157;SDS011;2598;52.364;9.772;2022-12-18T05:22:44;15.43;;;6.25;;
5157;SDS011;2598;52.364;9.772;2022-12-18T05:25:10;13.23;;;6.22;;
5157;SDS011;2598;52.364;9.772;2022-12-18T05:27:36;16.00;;;5.63;;
5157;SDS011;2598;52.364;9.772;2022-12-18T05:30:02;13.27;;;6.07;;
5157;SDS011;2598;52.364;9.772;2022-12-18T05:32:28;12.70;;;6.57;;
5157;SDS011;2598;52.364;9.772;2022-12-18T05:34:54;12.30;;;5.85;;
5157;SDS011;2598;52.364;9.772;2022-12-18T05:37:22;16.70;;;6.30;;
5157;SDS011;2598;52.364;9.772;2022-12-18T05:39:48;12.63;;;6.50;;
5157;SDS011;2598;52.364;9.772;2022-12-18T05:42:14;14.73;;;5.37;;
5157;SDS011;2598;52.364;9.772;2022-12-18T05:44:40;13.60;;;6.30;;
5157;SDS011;2598;52.364;9.772;2022-12-18T05:47:06;12.27;;;5.80;;
5157;SDS011;2598;52.364;9.772;2022-12-18T05:49:32;13.00;;;5.50;;
5157;SDS011;2598;52.364;9.772;2022-12-18T05:51:58;12.52;;;5.82;;
5157;SDS011;2598;52.364;9.772;2022-12-18T05:54:26;14.73;;;6.15;;
5157;SDS011;2598;52.364;9.772;2022-12-18T05:56:52;15.50;;;5.78;;
5157;SDS011;2598;52.364;9.772;2022-12-18T05:59:18;16.55;;;5.93;;
5157;SDS011;2598;52.364;9.772;2022-12-18T06:01:44;11.53;;;5.40;;
5157;SDS011;2598;52.364;9.772;2022-12-18T06:04:10;12.18;;;5.50;;
5157;SDS011;2598;52.364;9.772;2022-12-18T06:06:37;13.07;;;6.07;;
5157;SDS011;2598;52.364;9.772;2022-12-18T06:09:03;14.82;;;5.75;;
5157;SDS011;2598;52.364;9.772;2022-12-18T06:11:33;17.48;;;7.18;;
5157;SDS011;2598;52.364;9.772;2022-12-18T06:14:00;17.02;;;5.90;;
5157;SDS011;2598;52.364;9.772;2022-12-18T06:16:27;11.15;;;5.13;;
5157;SDS011;2598;52.364;9.772;2022-12-18T06:18:55;10.68;;;5.70;;
5157;SDS011;2598;52.364;9.772;2022-12-18T06:21:21;15.93;;;6.03;;
5157;SDS011;2598;52.364;9.772;2022-12-18T06:23:47;12.38;;;6.13;;
5157;SDS011;2598;52.364;9.772;2022-12-18T06:26:13;13.30;;;5.87;;
5157;SDS011;2598;52.364;9.772;2022-12-18T06:28:40;15.07;;;6.22;;
5157;SDS011;2598;52.364;9.772;2022-12-18T06:31:06;11.90;;;5.10;;
5157;SDS011;2598;52.364;9.772;2022-12-18T06:33:32;16.25;;;5.57;;
5157;SDS011;2598;52.364;9.772;2022-12-18T06:35:59;13.73;;;5.10;;
5157;SDS011;2598;52.364;9.772;2022-12-18T06:38:26;14.00;;;5.63;;
5157;SDS011;2598;52.364;9.772;2022-12-18T06:40:52;16.30;;;5.72;;
5157;SDS011;2598;52.364;9.772;2022-12-18T06:43:18;16.02;;;5.65;;
5157;SDS011;2598;52.364;9.772;2022-12-18T06:45:44;13.90;;;5.43;;
5157;SDS011;2598;52.364;9.772;2022-12-18T06:48:14;17.67;;;5.35;;
5157;SDS011;2598;52.364;9.772;2022-12-18T06:50:42;13.77;;;5.77;;
5157;SDS011;2598;52.364;9.772;2022-12-18T06:53:08;19.20;;;6.45;;
5157;SDS011;2598;52.364;9.772;2022-12-18T06:55:34;15.23;;;6.30;;
5157;SDS011;2598;52.364;9.772;2022-12-18T06:58:00;11.87;;;4.87;;
5157;SDS011;2598;52.364;9.772;2022-12-18T07:00:26;11.70;;;5.00;;
5157;SDS011;2598;52.364;9.772;2022-12-18T07:02:52;11.18;;;5.07;;
5157;SDS011;2598;52.364;9.772;2022-12-18T07:05:18;9.90;;;4.85;;
5157;SDS011;2598;52.364;9.772;2022-12-18T07:07:44;13.80;;;5.07;;
5157;SDS011;2598;52.364;9.772;2022-12-18T07:10:10;11.47;;;4.63;;
5157;SDS011;2598;52.364;9.772;2022-12-18T07:12:36;11.57;;;4.85;;
5157;SDS011;2598;52.364;9.772;2022-12-18T07:15:02;15.38;;;5.80;;
5157;SDS011;2598;52.364;9.772;2022-12-18T07:17:28;12.07;;;4.65;;
5157;SDS011;2598;52.364;9.772;2022-12-18T07:19:54;11.07;;;4.57;;
5157;SDS011;2598;52.364;9.772;2022-12-18T07:22:21;14.40;;;6.07;;
5157;SDS011;2598;52.364;9.772;2022-12-18T07:24:47;10.90;;;5.00;;
5157;SDS011;2598;52.364;9.772;2022-12-18T07:27:13;9.93;;;4.80;;
5157;SDS011;2598;52.364;9.772;2022-12-18T07:29:39;10.35;;;5.10;;
5157;SDS011;2598;52.364;9.772;2022-12-18T07:32:05;14.80;;;5.20;;
5157;SDS011;2598;52.364;9.772;2022-12-18T07:34:32;10.77;;;4.97;;
5157;SDS011;2598;52.364;9.772;2022-12-18T07:36:58;13.63;;;5.22;;
5157;SDS011;2598;52.364;9.772;2022-12-18T07:39:24;16.88;;;5.85;;
5157;SDS011;2598;52.364;9.772;2022-12-18T07:41:50;15.20;;;6.30;;
5157;SDS011;2598;52.364;9.772;2022-12-18T07:44:35;10.98;;;5.65;;
5157;SDS011;2598;52.364;9.772;2022-12-18T07:47:01;10.85;;;5.18;;
5157;SDS011;2598;52.364;9.772;2022-12-18T07:49:27;11.70;;;5.63;;
5157;SDS011;2598;52.364;9.772;2022-12-18T07:51:54;16.80;;;5.38;;
5157;SDS011;2598;52.364;9.772;2022-12-18T07:54:21;13.20;;;5.82;;
5157;SDS011;2598;52.364;9.772;2022-12-18T07:56:46;13.30;;;5.05;;
5157;SDS011;2598;52.364;9.772;2022-12-18T07:59:12;12.83;;;5.93;;
5157;SDS011;2598;52.364;9.772;2022-12-18T08:01:38;12.77;;;5.60;;
5157;SDS011;2598;52.364;9.772;2022-12-18T08:04:04;13.90;;;6.18;;
5157;SDS011;2598;52.364;9.772;2022-12-18T08:06:30;18.70;;;6.63;;
5157;SDS011;2598;52.364;9.772;2022-12-18T08:08:56;14.60;;;5.60;;
5157;SDS011;2598;52.364;9.772;2022-12-18T08:11:23;11.40;;;5.70;;
5157;SDS011;2598;52.364;9.772;2022-12-18T08:13:49;12.32;;;5.93;;
5157;SDS011;2598;52.364;9.772;2022-12-18T08:16:16;13.52;;;5.78;;
5157;SDS011;2598;52.364;9.772;2022-12-18T08:18:42;14.38;;;6.55;;
5157;SDS011;2598;52.364;9.772;2022-12-18T08:21:12;11.15;;;4.78;;
5157;SDS011;2598;52.364;9.772;2022-12-18T08:23:38;10.98;;;5.03;;
5157;SDS011;2598;52.364;9.772;2022-12-18T08:26:04;12.80;;;5.35;;
5157;SDS011;2598;52.364;9.772;2022-12-18T08:28:31;15.68;;;5.53;;
5157;SDS011;2598;52.364;9.772;2022-12-18T08:30:57;12.98;;;5.68;;
5157;SDS011;2598;52.364;9.772;2022-12-18T08:33:23;15.98;;;5.43;;
5157;SDS011;2598;52.364;9.772;2022-12-18T08:35:49;12.60;;;4.93;;
5157;SDS011;2598;52.364;9.772;2022-12-18T08:38:15;12.52;;;5.50;;
5157;SDS011;2598;52.364;9.772;2022-12-18T08:40:41;15.63;;;5.60;;
5157;SDS011;2598;52.364;9.772;2022-12-18T08:43:08;14.05;;;6.65;;
5157;SDS011;2598;52.364;9.772;2022-12-18T08:45:53;17.52;;;7.75;;
5157;SDS011;2598;52.364;9.772;2022-12-18T08:48:19;12.43;;;5.85;;
5157;SDS011;2598;52.364;9.772;2022-12-18T08:51:03;13.73;;;6.43;;
5157;SDS011;2598;52.364;9.772;2022-12-18T08:53:29;16.70;;;6.60;;
5157;SDS011;2598;52.364;9.772;2022-12-18T08:55:58;18.05;;;6.50;;
5157;SDS011;2598;52.364;9.772;2022-12-18T08:58:24;13.23;;;6.40;;
5157;SDS011;2598;52.364;9.772;2022-12-18T09:00:50;13.00;;;5.40;;
5157;SDS011;2598;52.364;9.772;2022-12-18T09:03:17;17.58;;;6.57;;
5157;SDS011;2598;52.364;9.772;2022-12-18T09:05:45;24.27;;;9.82;;
5157;SDS011;2598;52.364;9.772;2022-12-18T09:08:11;19.27;;;8.68;;
5157;SDS011;2598;52.364;9.772;2022-12-18T09:10:41;20.55;;;6.90;;
5157;SDS011;2598;52.364;9.772;2022-12-18T09:13:08;13.63;;;5.75;;
5157;SDS011;2598;52.364;9.772;2022-12-18T09:15:39;9.88;;;4.45;;
5157;SDS011;2598;52.364;9.772;2022-12-18T09:18:05;11.60;;;4.50;;
5157;SDS011;2598;52.364;9.772;2022-12-18T09:20:32;10.30;;;4.28;;
5157;SDS011;2598;52.364;9.772;2022-12-18T09:22:58;10.80;;;4.63;;
5157;SDS011;2598;52.364;9.772;2022-12-18T09:25:24;9.70;;;4.20;;
5157;SDS011;2598;52.364;9.772;2022-12-18T09:27:49;14.35;;;4.07;;
5157;SDS011;2598;52.364;9.772;2022-12-18T09:30:15;11.67;;;4.27;;
5157;SDS011;2598;52.364;9.772;2022-12-18T09:32:41;9.32;;;3.45;;
5157;SDS011;2598;52.364;9.772;2022-12-18T09:35:07;11.17;;;3.97;;
5157;SDS011;2598;52.364;9.772;2022-12-18T09:37:33;9.00;;;4.05;;
5157;SDS011;2598;52.364;9.772;2022-12-18T09:40:00;8.32;;;3.70;;
5157;SDS011;2598;52.364;9.772;2022-12-18T09:42:25;10.00;;;3.93;;
5157;SDS011;2598;52.364;9.772;2022-12-18T09:44:52;13.30;;;3.88;;
5157;SDS011;2598;52.364;9.772;2022-12-18T09:47:23;9.20;;;3.47;;
5157;SDS011;2598;52.364;9.772;2022-12-18T09:49:55;9.70;;;3.42;;
5157;SDS011;2598;52.364;9.772;2022-12-18T09:52:26;10.45;;;4.10;;
5157;SDS011;2598;52.364;9.772;2022-12-18T09:54:55;14.38;;;4.00;;
5157;SDS011;2598;52.364;9.772;2022-12-18T09:57:23;7.88;;;3.88;;
5157;SDS011;2598;52.364;9.772;2022-12-18T09:59:54;8.70;;;3.90;;
5157;SDS011;2598;52.364;9.772;2022-12-18T10:02:22;8.88;;;3.75;;
5157;SDS011;2598;52.364;9.772;2022-12-18T10:04:59;10.15;;;4.22;;
5157;SDS011;2598;52.364;9.772;2022-12-18T10:08:16;10.02;;;3.95;;
5157;SDS011;2598;52.364;9.772;2022-12-18T10:13:06;8.95;;;4.10;;
5157;SDS011;2598;52.364;9.772;2022-12-18T10:15:58;11.25;;;4.47;;
5157;SDS011;2598;52.364;9.772;2022-12-18T10:20:51;9.52;;;4.30;;
5157;SDS011;2598;52.364;9.772;2022-12-18T10:23:24;12.80;;;5.55;;
5157;SDS011;2598;52.364;9.772;2022-12-18T10:28:23;10.43;;;4.95;;
5157;SDS011;2598;52.364;9.772;2022-12-18T10:30:50;14.02;;;5.82;;
5157;SDS011;2598;52.364;9.772;2022-12-18T10:33:17;11.77;;;5.10;;
5157;SDS011;2598;52.364;9.772;2022-12-18T10:35:44;10.90;;;4.47;;
5157;SDS011;2598;52.364;9.772;2022-12-18T10:40:51;12.75;;;5.63;;
5157;SDS011;2598;52.364;9.772;2022-12-18T10:43:51;14.45;;;6.15;;
5157;SDS011;2598;52.364;9.772;2022-12-18T10:51:05;10.70;;;4.88;;
5157;SDS011;2598;52.364;9.772;2022-12-18T10:53:33;11.35;;;5.00;;
5157;SDS011;2598;52.364;9.772;2022-12-18T10:55:59;14.05;;;6.10;;
5157;SDS011;2598;52.364;9.772;2022-12-18T11:01:11;11.82;;;4.68;;
5157;SDS011;2598;52.364;9.772;2022-12-18T11:03:58;10.75;;;5.10;;
5157;SDS011;2598;52.364;9.772;2022-12-18T11:06:25;14.40;;;5.38;;
5157;SDS011;2598;52.364;9.772;2022-12-18T11:09:01;14.63;;;5.60;;
5157;SDS011;2598;52.364;9.772;2022-12-18T11:11:27;13.55;;;5.32;;
5157;SDS011;2598;52.364;9.772;2022-12-18T11:14:04;14.95;;;4.97;;
5157;SDS011;2598;52.364;9.772;2022-12-18T11:16:33;12.82;;;5.93;;
5157;SDS011;2598;52.364;9.772;2022-12-18T11:21:46;13.77;;;5.10;;
5157;SDS011;2598;52.364;9.772;2022-12-18T11:24:29;11.45;;;4.95;;
5157;SDS011;2598;52.364;9.772;2022-12-18T11:26:57;11.38;;;5.13;;
5157;SDS011;2598;52.364;9.772;2022-12-18T11:29:42;10.85;;;4.68;;
5157;SDS011;2598;52.364;9.772;2022-12-18T11:34:41;14.20;;;5.40;;
5157;SDS011;2598;52.364;9.772;2022-12-18T11:37:08;11.10;;;4.90;;
5157;SDS011;2598;52.364;9.772;2022-12-18T11:39:49;10.00;;;4.72;;
5157;SDS011;2598;52.364;9.772;2022-12-18T11:42:20;12.68;;;4.90;;
5157;SDS011;2598;52.364;9.772;2022-12-18T11:47:29;10.30;;;4.65;;
5157;SDS011;2598;52.364;9.772;2022-12-18T11:50:00;8.13;;;4.10;;
5157;SDS011;2598;52.364;9.772;2022-12-18T11:54:55;13.32;;;4.72;;
5157;SDS011;2598;52.364;9.772;2022-12-18T11:57:28;9.35;;;4.53;;
5157;SDS011;2598;52.364;9.772;2022-12-18T12:15:58;10.00;;;3.53;;
5157;SDS011;2598;52.364;9.772;2022-12-18T12:26:20;10.07;;;4.15;;
5157;SDS011;2598;52.364;9.772;2022-12-18T12:28:55;10.55;;;4.97;;
5157;SDS011;2598;52.364;9.772;2022-12-18T12:31:33;9.55;;;4.60;;
5157;SDS011;2598;52.364;9.772;2022-12-18T12:34:20;8.88;;;4.32;;
5157;SDS011;2598;52.364;9.772;2022-12-18T12:39:23;12.13;;;5.80;;
5157;SDS011;2598;52.364;9.772;2022-12-18T12:41:53;11.35;;;5.38;;
5157;SDS011;2598;52.364;9.772;2022-12-18T12:44:41;11.98;;;5.20;;
5157;SDS011;2598;52.364;9.772;2022-12-18T12:47:11;9.68;;;4.57;;
5157;SDS011;2598;52.364;9.772;2022-12-18T12:49:39;12.70;;;5.57;;
5157;SDS011;2598;52.364;9.772;2022-12-18T12:52:07;13.90;;;6.25;;
5157;SDS011;2598;52.364;9.772;2022-12-18T12:54:36;19.20;;;7.70;;
5157;SDS011;2598;52.364;9.772;2022-12-18T12:57:05;17.40;;;7.93;;
5157;SDS011;2598;52.364;9.772;2022-12-18T12:59:51;16.77;;;8.10;;
5157;SDS011;2598;52.364;9.772;2022-12-18T13:02:31;16.05;;;8.23;;
5157;SDS011;2598;52.364;9.772;2022-12-18T13:05:04;24.98;;;9.20;;
5157;SDS011;2598;52.364;9.772;2022-12-18T13:07:35;22.38;;;9.48;;
5157;SDS011;2598;52.364;9.772;2022-12-18T13:15:26;26.08;;;10.90;;
5157;SDS011;2598;52.364;9.772;2022-12-18T13:18:04;21.25;;;10.95;;
5157;SDS011;2598;52.364;9.772;2022-12-18T13:20:34;22.23;;;10.60;;
5157;SDS011;2598;52.364;9.772;2022-12-18T13:23:01;22.70;;;10.18;;
5157;SDS011;2598;52.364;9.772;2022-12-18T13:25:31;22.30;;;10.25;;
5157;SDS011;2598;52.364;9.772;2022-12-18T13:35:38;25.67;;;12.10;;
5157;SDS011;2598;52.364;9.772;2022-12-18T13:38:18;25.10;;;12.57;;
5157;SDS011;2598;52.364;9.772;2022-12-18T13:46:00;22.23;;;10.82;;
5157;SDS011;2598;52.364;9.772;2022-12-18T13:48:27;20.15;;;9.98;;
5157;SDS011;2598;52.364;9.772;2022-12-18T13:50:56;27.80;;;11.20;;
5157;SDS011;2598;52.364;9.772;2022-12-18T13:53:26;20.33;;;12.10;;
5157;SDS011;2598;52.364;9.772;2022-12-18T13:55:52;27.48;;;12.88;;
5157;SDS011;2598;52.364;9.772;2022-12-18T13:58:18;22.60;;;10.90;;
5157;SDS011;2598;52.364;9.772;2022-12-18T14:00:45;22.57;;;11.80;;
5157;SDS011;2598;52.364;9.772;2022-12-18T14:03:18;26.23;;;13.27;;
5157;SDS011;2598;52.364;9.772;2022-12-18T14:05:44;26.27;;;11.95;;
5157;SDS011;2598;52.364;9.772;2022-12-18T14:08:13;26.35;;;11.25;;
5157;SDS011;2598;52.364;9.772;2022-12-18T14:10:40;24.92;;;11.27;;
5157;SDS011;2598;52.364;9.772;2022-12-18T14:13:06;24.25;;;11.52;;
5157;SDS011;2598;52.364;9.772;2022-12-18T14:15:35;24.27;;;12.20;;
5157;SDS011;2598;52.364;9.772;2022-12-18T14:18:03;26.52;;;12.30;;
5157;SDS011;2598;52.364;9.772;2022-12-18T14:20:34;24.38;;;11.70;;
5157;SDS011;2598;52.364;9.772;2022-12-18T14:23:00;23.65;;;12.98;;
5157;SDS011;2598;52.364;9.772;2022-12-18T14:25:27;27.50;;;13.32;;
5157;SDS011;2598;52.364;9.772;2022-12-18T14:30:50;27.48;;;11.73;;
5157;SDS011;2598;52.364;9.772;2022-12-18T14:33:18;26.90;;;12.03;;
5157;SDS011;2598;52.364;9.772;2022-12-18T14:38:23;29.63;;;12.90;;
5157;SDS011;2598;52.364;9.772;2022-12-18T14:40:53;20.48;;;10.95;;
5157;SDS011;2598;52.364;9.772;2022-12-18T14:43:20;27.67;;;12.10;;
5157;SDS011;2598;52.364;9.772;2022-12-18T14:45:46;27.38;;;12.40;;
5157;SDS011;2598;52.364;9.772;2022-12-18T14:48:16;26.73;;;12.18;;
5157;SDS011;2598;52.364;9.772;2022-12-18T14:50:43;26.27;;;12.35;;
5157;SDS011;2598;52.364;9.772;2022-12-18T14:53:19;27.83;;;14.07;;
5157;SDS011;2598;52.364;9.772;2022-12-18T14:55:46;24.23;;;12.32;;
5157;SDS011;2598;52.364;9.772;2022-12-18T14:58:14;24.20;;;12.25;;
5157;SDS011;2598;52.364;9.772;2022-12-18T15:00:41;30.55;;;13.52;;
5157;SDS011;2598;52.364;9.772;2022-12-18T15:03:07;27.73;;;12.77;;
5157;SDS011;2598;52.364;9.772;2022-12-18T15:05:34;25.38;;;12.80;;
5157;SDS011;2598;52.364;9.772;2022-12-18T15:08:01;27.42;;;12.80;;
5157;SDS011;2598;52.364;9.772;2022-12-18T15:10:34;25.67;;;13.55;;
5157;SDS011;2598;52.364;9.772;2022-12-18T15:20:30;27.17;;;12.70;;
5157;SDS011;2598;52.364;9.772;2022-12-18T15:22:57;28.60;;;14.63;;
5157;SDS011;2598;52.364;9.772;2022-12-18T15:27:49;31.30;;;14.33;;
5157;SDS011;2598;52.364;9.772;2022-12-18T15:30:17;33.83;;;13.88;;
5157;SDS011;2598;52.364;9.772;2022-12-18T15:32:43;28.70;;;13.23;;
5157;SDS011;2598;52.364;9.772;2022-12-18T15:35:20;39.13;;;15.60;;
5157;SDS011;2598;52.364;9.772;2022-12-18T15:37:47;30.60;;;15.18;;
5157;SDS011;2598;52.364;9.772;2022-12-18T15:40:17;24.90;;;13.30;;
5157;SDS011;2598;52.364;9.772;2022-12-18T15:42:43;22.80;;;11.32;;
5157;SDS011;2598;52.364;9.772;2022-12-18T15:45:28;26.42;;;11.00;;
5157;SDS011;2598;52.364;9.772;2022-12-18T15:47:54;25.38;;;12.60;;
5157;SDS011;2598;52.364;9.772;2022-12-18T15:50:20;25.27;;;12.85;;
5157;SDS011;2598;52.364;9.772;2022-12-18T15:52:47;25.35;;;12.25;;
5157;SDS011;2598;52.364;9.772;2022-12-18T15:55:18;25.50;;;12.35;;
5157;SDS011;2598;52.364;9.772;2022-12-18T15:58:04;24.23;;;12.30;;
5157;SDS011;2598;52.364;9.772;2022-12-18T16:00:31;25.98;;;13.00;;
5157;SDS011;2598;52.364;9.772;2022-12-18T16:02:58;19.80;;;11.75;;
5157;SDS011;2598;52.364;9.772;2022-12-18T16:05:24;22.27;;;11.07;;
5157;SDS011;2598;52.364;9.772;2022-12-18T16:07:50;33.97;;;13.70;;
5157;SDS011;2598;52.364;9.772;2022-12-18T16:10:16;32.80;;;13.23;;
5157;SDS011;2598;52.364;9.772;2022-12-18T16:12:42;26.33;;;12.57;;
5157;SDS011;2598;52.364;9.772;2022-12-18T16:15:10;22.90;;;11.38;;
5157;SDS011;2598;52.364;9.772;2022-12-18T16:17:38;36.42;;;12.38;;
5157;SDS011;2598;52.364;9.772;2022-12-18T16:20:04;20.37;;;11.73;;
5157;SDS011;2598;52.364;9.772;2022-12-18T16:22:30;28.55;;;11.05;;
5157;SDS011;2598;52.364;9.772;2022-12-18T16:24:57;26.47;;;11.40;;
5157;SDS011;2598;52.364;9.772;2022-12-18T16:27:23;26.63;;;12.15;;
5157;SDS011;2598;52.364;9.772;2022-12-18T16:29:49;24.08;;;12.75;;
5157;SDS011;2598;52.364;9.772;2022-12-18T16:32:17;23.75;;;12.05;;
5157;SDS011;2598;52.364;9.772;2022-12-18T16:34:43;29.90;;;13.48;;
5157;SDS011;2598;52.364;9.772;2022-12-18T16:37:11;30.58;;;12.32;;
5157;SDS011;2598;52.364;9.772;2022-12-18T16:39:37;32.10;;;12.90;;
5157;SDS011;2598;52.364;9.772;2022-12-18T16:42:05;26.33;;;12.57;;
5157;SDS011;2598;52.364;9.772;2022-12-18T16:44:32;27.80;;;11.85;;
5157;SDS011;2598;52.364;9.772;2022-12-18T16:46:58;30.55;;;12.35;;
5157;SDS011;2598;52.364;9.772;2022-12-18T16:49:26;25.10;;;12.25;;
5157;SDS011;2598;52.364;9.772;2022-12-18T16:51:53;22.23;;;11.00;;